createdAt,value
2023-03-16T00:00:30.057Z,1005.27
2023-03-16T00:01:29.810Z,1005.28
2023-03-16T00:02:29.802Z,1005.30
2023-03-16T00:03:30.491Z,1005.28
2023-03-16T00:04:29.788Z,1005.28
2023-03-16T00:05:29.792Z,1005.24
2023-03-16T00:06:29.785Z,1005.32
2023-03-16T00:07:29.756Z,1005.31
2023-03-16T00:08:29.771Z,1005.34
2023-03-16T00:09:29.739Z,1005.30
2023-03-16T00:10:29.929Z,1005.38
2023-03-16T00:11:29.752Z,1005.31
2023-03-16T00:12:29.730Z,1005.33
2023-03-16T00:13:29.715Z,1005.33
2023-03-16T00:14:29.751Z,1005.24
2023-03-16T00:15:29.735Z,1005.29
2023-03-16T00:16:29.890Z,1005.33
2023-03-16T00:17:29.676Z,1005.32
2023-03-16T00:18:29.671Z,1005.32
2023-03-16T00:19:29.722Z,1005.34
2023-03-16T00:20:29.680Z,1005.24
2023-03-16T00:21:29.730Z,1005.27
2023-03-16T00:22:29.647Z,1005.28
2023-03-16T00:23:29.639Z,1005.31
2023-03-16T00:24:29.646Z,1005.39
2023-03-16T00:25:29.634Z,1005.39
2023-03-16T00:26:29.655Z,1005.40
2023-03-16T00:27:29.624Z,1005.33
2023-03-16T00:28:29.598Z,1005.37
2023-03-16T00:29:29.591Z,1005.38
2023-03-16T00:30:29.717Z,1005.37
2023-03-16T00:31:29.621Z,1005.38
2023-03-16T00:32:29.641Z,1005.40
2023-03-16T00:33:29.604Z,1005.39
2023-03-16T00:34:29.564Z,1005.37
2023-03-16T00:35:29.551Z,1005.32
2023-03-16T00:36:29.644Z,1005.38
2023-03-16T00:37:29.548Z,1005.34
2023-03-16T00:38:29.564Z,1005.36
2023-03-16T00:39:29.604Z,1005.32
2023-03-16T00:40:30.508Z,1005.24
2023-03-16T00:41:29.500Z,1005.33
2023-03-16T00:42:29.519Z,1005.26
2023-03-16T00:43:29.493Z,1005.36
2023-03-16T00:44:29.506Z,1005.31
2023-03-16T00:45:29.530Z,1005.28
2023-03-16T00:46:29.482Z,1005.26
2023-03-16T00:47:29.492Z,1005.27
2023-03-16T00:48:29.537Z,1005.25
2023-03-16T00:49:29.500Z,1005.28
2023-03-16T00:50:29.811Z,1005.26
2023-03-16T00:51:29.421Z,1005.32
2023-03-16T00:52:29.462Z,1005.27
2023-03-16T00:53:29.573Z,1005.32
2023-03-16T00:54:29.404Z,1005.33
2023-03-16T00:55:29.427Z,1005.33
2023-03-16T00:56:29.408Z,1005.30
2023-03-16T00:57:29.396Z,1005.33
2023-03-16T00:58:29.407Z,1005.30
2023-03-16T00:59:29.414Z,1005.23
2023-03-16T01:00:29.675Z,1005.31
2023-03-16T01:01:29.413Z,1005.32
2023-03-16T01:02:29.345Z,1005.32
2023-03-16T01:03:29.518Z,1005.33
2023-03-16T01:04:29.331Z,1005.28
2023-03-16T01:05:29.363Z,1005.24
2023-03-16T01:06:29.357Z,1005.20
2023-03-16T01:07:29.312Z,1005.21
2023-03-16T01:08:29.290Z,1005.24
2023-03-16T01:09:29.291Z,1005.25
2023-03-16T01:10:29.809Z,1005.24
2023-03-16T01:11:30.291Z,1005.28
2023-03-16T01:12:29.260Z,1005.27
2023-03-16T01:13:29.892Z,1005.27
2023-03-16T01:14:29.283Z,1005.23
2023-03-16T01:15:29.257Z,1005.23
2023-03-16T01:16:29.283Z,1005.24
2023-03-16T01:17:29.302Z,1005.29
2023-03-16T01:18:29.249Z,1005.23
2023-03-16T01:19:29.233Z,1005.28
2023-03-16T01:20:29.629Z,1005.21
2023-03-16T01:21:29.241Z,1005.26
2023-03-16T01:22:29.187Z,1005.32
2023-03-16T01:23:29.163Z,1005.23
2023-03-16T01:24:30.232Z,1005.25
2023-03-16T01:25:29.193Z,1005.22
2023-03-16T01:26:29.163Z,1005.22
2023-03-16T01:27:29.219Z,1005.21
2023-03-16T01:28:29.197Z,1005.25
2023-03-16T01:29:29.136Z,1005.21
2023-03-16T01:30:29.594Z,1005.21
2023-03-16T01:31:29.145Z,1005.17
2023-03-16T01:32:29.258Z,1005.22
2023-03-16T01:33:29.153Z,1005.20
2023-03-16T01:34:29.182Z,1005.22
2023-03-16T01:35:29.161Z,1005.17
2023-03-16T01:36:29.836Z,1005.17
2023-03-16T01:37:29.834Z,1005.11
2023-03-16T01:38:29.096Z,1005.12
2023-03-16T01:39:29.089Z,1005.08
2023-03-16T01:40:30.165Z,1005.08
2023-03-16T01:41:29.045Z,1005.12
2023-03-16T01:42:29.077Z,1005.09
2023-03-16T01:43:29.122Z,1005.10
2023-03-16T01:44:29.039Z,1005.05
2023-03-16T01:45:29.035Z,1005.06
2023-03-16T01:46:29.092Z,1005.05
2023-03-16T01:47:29.044Z,1004.97
2023-03-16T01:48:29.061Z,1004.99
2023-03-16T01:49:29.035Z,1005.00
2023-03-16T01:50:29.507Z,1004.99
2023-03-16T01:51:28.992Z,1004.96
2023-03-16T01:52:29.864Z,1004.99
2023-03-16T01:53:29.018Z,1004.97
2023-03-16T01:54:28.992Z,1004.99
2023-03-16T01:55:28.953Z,1004.99
2023-03-16T01:56:28.964Z,1005.00
2023-03-16T01:57:28.946Z,1005.00
2023-03-16T01:58:28.993Z,1005.01
2023-03-16T01:59:28.952Z,1005.01
2023-03-16T02:00:29.235Z,1005.00
2023-03-16T02:01:28.962Z,1004.97
2023-03-16T02:02:28.909Z,1005.03
2023-03-16T02:03:28.915Z,1004.96
2023-03-16T02:04:28.949Z,1004.91
2023-03-16T02:05:28.896Z,1004.87
2023-03-16T02:06:29.842Z,1004.83
2023-03-16T02:07:29.829Z,1004.80
2023-03-16T02:08:29.854Z,1004.88
2023-03-16T02:09:28.890Z,1004.84
2023-03-16T02:10:29.317Z,1004.79
2023-03-16T02:11:28.829Z,1004.82
2023-03-16T02:12:28.862Z,1004.80
2023-03-16T02:13:29.883Z,1004.87
2023-03-16T02:14:28.824Z,1004.89
2023-03-16T02:15:28.842Z,1004.88
2023-03-16T02:17:01.292Z,1004.85
2023-03-16T02:17:28.812Z,1004.88
2023-03-16T02:18:28.787Z,1004.91
2023-03-16T02:19:28.859Z,1004.89
2023-03-16T02:20:29.140Z,1004.90
2023-03-16T02:21:28.766Z,1004.92
2023-03-16T02:22:28.749Z,1004.89
2023-03-16T02:23:28.811Z,1004.91
2023-03-16T02:24:28.771Z,1004.91
2023-03-16T02:25:28.740Z,1004.93
2023-03-16T02:26:29.405Z,1004.91
2023-03-16T02:27:28.793Z,1004.82
2023-03-16T02:28:28.743Z,1004.77
2023-03-16T02:29:28.735Z,1004.86
2023-03-16T02:30:29.054Z,1004.85
2023-03-16T02:31:28.741Z,1004.89
2023-03-16T02:32:28.720Z,1004.91
2023-03-16T02:33:28.672Z,1004.97
2023-03-16T02:34:28.666Z,1004.97
2023-03-16T02:35:28.721Z,1004.93
2023-03-16T02:36:28.635Z,1004.88
2023-03-16T02:37:28.653Z,1004.82
2023-03-16T02:38:28.644Z,1004.85
2023-03-16T02:39:28.632Z,1004.81
2023-03-16T02:40:29.001Z,1004.90
2023-03-16T02:41:28.636Z,1004.85
2023-03-16T02:42:28.613Z,1004.78
2023-03-16T02:43:29.402Z,1004.79
2023-03-16T02:44:28.604Z,1004.83
2023-03-16T02:45:28.648Z,1004.81
2023-03-16T02:46:28.715Z,1004.72
2023-03-16T02:47:28.593Z,1004.76
2023-03-16T02:48:28.565Z,1004.77
2023-03-16T02:49:28.577Z,1004.75
2023-03-16T02:50:28.978Z,1004.76
2023-03-16T02:51:28.625Z,1004.71
2023-03-16T02:52:28.544Z,1004.73
2023-03-16T02:53:28.531Z,1004.67
2023-03-16T02:54:28.537Z,1004.67
2023-03-16T02:55:28.538Z,1004.66
2023-03-16T02:56:28.562Z,1004.60
2023-03-16T02:57:28.618Z,1004.58
2023-03-16T02:58:28.507Z,1004.53
2023-03-16T02:59:28.514Z,1004.52
2023-03-16T03:00:28.733Z,1004.55
2023-03-16T03:01:28.488Z,1004.57
2023-03-16T03:02:28.498Z,1004.58
2023-03-16T03:03:28.487Z,1004.55
2023-03-16T03:04:28.469Z,1004.54
2023-03-16T03:05:29.369Z,1004.47
2023-03-16T03:06:28.425Z,1004.55
2023-03-16T03:07:28.461Z,1004.49
2023-03-16T03:08:28.440Z,1004.46
2023-03-16T03:09:28.458Z,1004.56
2023-03-16T03:10:28.716Z,1004.51
2023-03-16T03:11:29.391Z,1004.50
2023-03-16T03:12:28.408Z,1004.51
2023-03-16T03:13:28.420Z,1004.46
2023-03-16T03:14:28.395Z,1004.47
2023-03-16T03:15:28.375Z,1004.48
2023-03-16T03:16:28.445Z,1004.42
2023-03-16T03:17:28.363Z,1004.43
2023-03-16T03:18:28.357Z,1004.47
2023-03-16T03:19:28.369Z,1004.46
2023-03-16T03:20:28.533Z,1004.54
2023-03-16T03:21:28.328Z,1004.61
2023-03-16T03:22:28.427Z,1004.57
2023-03-16T03:23:28.320Z,1004.55
2023-03-16T03:24:28.304Z,1004.55
2023-03-16T03:25:28.311Z,1004.50
2023-03-16T03:26:28.335Z,1004.51
2023-03-16T03:27:28.324Z,1004.58
2023-03-16T03:28:28.283Z,1004.53
2023-03-16T03:29:28.305Z,1004.53
2023-03-16T03:30:28.601Z,1004.53
2023-03-16T03:31:28.282Z,1004.52
2023-03-16T03:32:28.305Z,1004.52
2023-03-16T03:33:28.221Z,1004.49
2023-03-16T03:34:28.323Z,1004.46
2023-03-16T03:35:28.272Z,1004.45
2023-03-16T03:36:28.212Z,1004.41
2023-03-16T03:37:28.218Z,1004.39
2023-03-16T03:38:28.224Z,1004.41
2023-03-16T03:39:28.199Z,1004.34
2023-03-16T03:40:28.415Z,1004.43
2023-03-16T03:41:28.217Z,1004.33
2023-03-16T03:42:28.199Z,1004.37
2023-03-16T03:43:28.182Z,1004.44
2023-03-16T03:44:28.179Z,1004.39
2023-03-16T03:45:28.244Z,1004.42
2023-03-16T03:46:28.381Z,1004.39
2023-03-16T04:02:55.535Z,1004.55
2023-03-16T04:03:55.379Z,1004.52
2023-03-16T04:04:55.422Z,1004.58
2023-03-16T04:05:56.534Z,1004.54
2023-03-16T04:06:56.558Z,1004.53
2023-03-16T04:07:56.497Z,1004.54
2023-03-16T04:08:56.512Z,1004.46
2023-03-16T04:09:56.505Z,1004.48
2023-03-16T04:10:56.525Z,1004.44
2023-03-16T04:11:56.524Z,1004.39
2023-03-16T04:12:56.473Z,1004.41
2023-03-16T04:13:56.479Z,1004.42
2023-03-16T04:14:56.462Z,1004.46
2023-03-16T04:15:56.456Z,1004.42
2023-03-16T04:16:56.555Z,1004.43
2023-03-16T04:17:56.478Z,1004.43
2023-03-16T04:18:56.424Z,1004.45
2023-03-16T04:19:56.443Z,1004.32
2023-03-16T04:20:56.380Z,1004.41
2023-03-16T04:21:56.401Z,1004.44
2023-03-16T04:22:56.413Z,1004.46
2023-03-16T04:23:56.386Z,1004.42
2023-03-16T04:24:56.410Z,1004.45
2023-03-16T04:25:56.380Z,1004.49
2023-03-16T04:26:56.374Z,1004.36
2023-03-16T04:27:56.388Z,1004.43
2023-03-16T04:28:56.345Z,1004.42
2023-03-16T04:29:56.405Z,1004.42
2023-03-16T04:30:56.357Z,1004.48
2023-03-16T04:31:56.418Z,1004.46
2023-03-16T04:32:57.449Z,1004.44
2023-03-16T04:33:57.098Z,1004.44
2023-03-16T04:34:56.363Z,1004.41
2023-03-16T04:35:56.348Z,1004.44
2023-03-16T04:36:56.292Z,1004.44
2023-03-16T04:37:56.260Z,1004.42
2023-03-16T04:38:56.298Z,1004.42
2023-03-16T04:39:56.255Z,1004.49
2023-03-16T04:40:56.251Z,1004.49
2023-03-16T04:41:56.254Z,1004.49
2023-03-16T04:42:57.087Z,1004.47
2023-03-16T04:43:56.995Z,1004.46
2023-03-16T04:44:56.225Z,1004.42
2023-03-16T04:45:56.308Z,1004.46
2023-03-16T04:46:56.246Z,1004.46
2023-03-16T04:47:56.184Z,1004.45
2023-03-16T04:48:56.210Z,1004.36
2023-03-16T04:49:56.194Z,1004.36
2023-03-16T04:50:56.163Z,1004.39
2023-03-16T04:51:56.178Z,1004.36
2023-03-16T04:52:56.178Z,1004.36
2023-03-16T04:53:56.323Z,1004.33
2023-03-16T04:54:56.163Z,1004.29
2023-03-16T04:55:56.166Z,1004.29
2023-03-16T04:56:56.184Z,1004.29
2023-03-16T04:57:56.190Z,1004.29
2023-03-16T04:58:56.104Z,1004.29
2023-03-16T04:59:56.112Z,1004.20
2023-03-16T05:00:56.099Z,1004.18
2023-03-16T05:01:56.195Z,1004.19
2023-03-16T05:02:56.162Z,1004.20
2023-03-16T05:03:57.918Z,1004.22
2023-03-16T05:04:57.084Z,1004.17
2023-03-16T05:06:02.310Z,1004.11
2023-03-16T05:06:56.072Z,1004.09
2023-03-16T05:07:56.144Z,1004.16
2023-03-16T05:08:56.086Z,1004.09
2023-03-16T05:09:56.176Z,1004.05
2023-03-16T05:10:56.391Z,1004.14
2023-03-16T05:11:56.023Z,1004.15
2023-03-16T05:12:56.040Z,1004.13
2023-03-16T05:13:56.989Z,1004.14
2023-03-16T05:14:55.992Z,1004.10
2023-03-16T05:15:56.017Z,1004.12
2023-03-16T05:16:56.004Z,1004.11
2023-03-16T05:17:56.644Z,1004.12
2023-03-16T05:18:55.976Z,1004.13
2023-03-16T05:19:56.063Z,1004.15
2023-03-16T05:20:55.934Z,1004.16
2023-03-16T05:21:57.430Z,1004.16
2023-03-16T05:22:55.945Z,1004.18
2023-03-16T05:23:55.959Z,1004.21
2023-03-16T05:24:56.214Z,1004.18
2023-03-16T05:25:55.915Z,1004.23
2023-03-16T05:26:55.914Z,1004.23
2023-03-16T05:27:55.912Z,1004.22
2023-03-16T05:28:55.894Z,1004.24
2023-03-16T05:29:55.910Z,1004.24
2023-03-16T05:30:55.923Z,1004.23
2023-03-16T05:31:55.951Z,1004.27
2023-03-16T05:32:56.012Z,1004.29
2023-03-16T05:33:55.870Z,1004.34
2023-03-16T05:34:55.873Z,1004.31
2023-03-16T05:35:55.874Z,1004.36
2023-03-16T05:36:55.834Z,1004.34
2023-03-16T05:37:55.841Z,1004.35
2023-03-16T05:38:55.873Z,1004.37
2023-03-16T05:39:55.868Z,1004.36
2023-03-16T05:40:55.806Z,1004.30
2023-03-16T05:41:55.846Z,1004.34
2023-03-16T05:42:55.810Z,1004.28
2023-03-16T05:43:55.785Z,1004.29
2023-03-16T05:44:55.816Z,1004.29
2023-03-16T05:45:55.785Z,1004.27
2023-03-16T05:46:55.845Z,1004.26
2023-03-16T05:47:55.953Z,1004.24
2023-03-16T05:48:55.807Z,1004.25
2023-03-16T05:49:56.649Z,1004.25
2023-03-16T05:50:55.762Z,1004.24
2023-03-16T05:51:55.773Z,1004.28
2023-03-16T05:52:55.743Z,1004.36
2023-03-16T05:53:55.704Z,1004.33
2023-03-16T05:54:55.721Z,1004.31
2023-03-16T05:55:55.698Z,1004.30
2023-03-16T05:56:55.743Z,1004.29
2023-03-16T05:57:55.733Z,1004.36
2023-03-16T05:58:55.700Z,1004.35
2023-03-16T05:59:56.689Z,1004.38
2023-03-16T06:00:55.655Z,1004.40
2023-03-16T06:01:55.681Z,1004.36
2023-03-16T06:02:55.757Z,1004.33
2023-03-16T06:03:55.791Z,1004.28
2023-03-16T06:04:56.598Z,1004.29
2023-03-16T06:05:55.627Z,1004.25
2023-03-16T06:06:55.630Z,1004.23
2023-03-16T06:07:55.652Z,1004.24
2023-03-16T06:08:55.623Z,1004.27
2023-03-16T06:09:55.640Z,1004.26
2023-03-16T06:10:55.608Z,1004.26
2023-03-16T06:11:55.624Z,1004.23
2023-03-16T06:12:55.617Z,1004.29
2023-03-16T06:13:55.560Z,1004.26
2023-03-16T06:14:55.555Z,1004.22
2023-03-16T06:15:55.599Z,1004.26
2023-03-16T06:16:55.563Z,1004.24
2023-03-16T06:17:55.539Z,1004.23
2023-03-16T06:18:56.593Z,1004.21
2023-03-16T06:19:55.568Z,1004.24
2023-03-16T06:20:55.506Z,1004.20
2023-03-16T06:21:55.599Z,1004.21
2023-03-16T06:22:56.434Z,1004.19
2023-03-16T06:23:55.561Z,1004.18
2023-03-16T06:24:55.540Z,1004.17
2023-03-16T06:25:55.507Z,1004.13
2023-03-16T06:26:55.518Z,1004.05
2023-03-16T06:27:55.489Z,1004.03
2023-03-16T06:28:55.556Z,1004.07
2023-03-16T06:29:55.441Z,1004.05
2023-03-16T06:30:55.512Z,1004.00
2023-03-16T06:31:55.661Z,1004.03
2023-03-16T06:32:55.524Z,1003.98
2023-03-16T06:33:55.474Z,1003.99
2023-03-16T06:34:55.432Z,1003.98
2023-03-16T06:35:55.500Z,1003.93
2023-03-16T06:36:55.435Z,1003.81
2023-03-16T06:37:55.430Z,1003.82
2023-03-16T06:38:55.451Z,1003.81
2023-03-16T06:39:55.431Z,1003.77
2023-03-16T06:40:55.447Z,1003.78
2023-03-16T06:41:55.427Z,1003.67
2023-03-16T06:42:55.387Z,1003.71
2023-03-16T06:43:55.376Z,1003.69
2023-03-16T06:44:55.359Z,1003.73
2023-03-16T06:45:56.429Z,1003.65
2023-03-16T06:46:55.354Z,1003.60
2023-03-16T06:47:56.132Z,1003.54
2023-03-16T06:48:55.341Z,1003.57
2023-03-16T06:49:55.360Z,1003.62
2023-03-16T06:50:55.343Z,1003.61
2023-03-16T06:51:55.293Z,1003.60
2023-03-16T06:52:55.289Z,1003.62
2023-03-16T06:53:55.299Z,1003.60
2023-03-16T06:54:55.261Z,1003.60
2023-03-16T06:55:55.278Z,1003.61
2023-03-16T06:56:55.269Z,1003.66
2023-03-16T06:57:55.291Z,1003.75
2023-03-16T06:58:55.246Z,1003.82
2023-03-16T06:59:55.322Z,1003.71
2023-03-16T07:00:55.390Z,1003.79
2023-03-16T07:01:55.307Z,1003.88
2023-03-16T07:02:55.212Z,1003.87
2023-03-16T07:03:55.229Z,1003.90
2023-03-16T07:04:55.198Z,1003.98
2023-03-16T07:05:55.199Z,1003.97
2023-03-16T07:06:55.237Z,1004.00
2023-03-16T07:07:55.182Z,1003.93
2023-03-16T07:08:55.186Z,1003.89
2023-03-16T07:09:55.157Z,1003.83
2023-03-16T07:10:55.158Z,1003.74
2023-03-16T07:11:55.178Z,1003.75
2023-03-16T07:12:55.155Z,1003.71
2023-03-16T07:13:55.126Z,1003.76
2023-03-16T07:14:55.129Z,1003.67
2023-03-16T07:15:55.154Z,1003.61
2023-03-16T07:16:55.220Z,1003.64
2023-03-16T07:17:55.113Z,1003.59
2023-03-16T07:18:55.096Z,1003.48
2023-03-16T07:19:55.095Z,1003.50
2023-03-16T07:20:55.088Z,1003.39
2023-03-16T07:21:55.079Z,1003.32
2023-03-16T07:22:55.068Z,1003.17
2023-03-16T07:23:55.098Z,1003.19
2023-03-16T07:24:55.060Z,1003.11
2023-03-16T07:25:55.057Z,1003.07
2023-03-16T07:26:55.032Z,1002.95
2023-03-16T07:27:55.065Z,1002.87
2023-03-16T07:28:57.878Z,1002.94
2023-03-16T07:29:55.142Z,1002.90
2023-03-16T07:31:03.326Z,1002.79
2023-03-16T07:31:57.128Z,1002.78
2023-03-16T07:32:55.080Z,1002.66
2023-03-16T07:33:55.036Z,1002.68
2023-03-16T07:34:55.754Z,1002.58
2023-03-16T07:35:54.982Z,1002.60
2023-03-16T07:36:54.967Z,1002.49
2023-03-16T07:37:54.991Z,1002.53
2023-03-16T07:38:54.974Z,1002.58
2023-03-16T07:39:54.992Z,1002.53
2023-03-16T07:40:54.951Z,1002.54
2023-03-16T07:41:54.942Z,1002.62
2023-03-16T07:42:54.920Z,1002.67
2023-03-16T07:43:54.921Z,1002.68
2023-03-16T07:44:54.935Z,1002.66
2023-03-16T07:45:54.977Z,1002.70
2023-03-16T07:46:54.887Z,1002.69
2023-03-16T07:47:54.885Z,1002.62
2023-03-16T07:48:54.858Z,1002.60
2023-03-16T07:49:54.933Z,1002.54
2023-03-16T07:50:54.860Z,1002.52
2023-03-16T07:51:54.850Z,1002.49
2023-03-16T07:52:54.872Z,1002.50
2023-03-16T07:53:54.820Z,1002.49
2023-03-16T07:54:54.876Z,1002.48
2023-03-16T07:55:54.826Z,1002.41
2023-03-16T07:56:54.802Z,1002.27
2023-03-16T07:57:54.815Z,1002.29
2023-03-16T07:58:54.784Z,1002.22
2023-03-16T07:59:54.797Z,1002.15
2023-03-16T08:00:54.823Z,1002.16
2023-03-16T08:01:54.902Z,1002.08
2023-03-16T08:02:54.840Z,1002.05
2023-03-16T08:03:54.791Z,1002.08
2023-03-16T08:04:54.746Z,1002.07
2023-03-16T08:05:54.769Z,1002.03
2023-03-16T08:06:54.730Z,1002.04
2023-03-16T08:07:54.743Z,1002.00
2023-03-16T08:08:54.712Z,1001.91
2023-03-16T08:09:54.698Z,1001.94
2023-03-16T08:10:56.630Z,1001.93
2023-03-16T08:11:55.681Z,1001.88
2023-03-16T08:12:54.822Z,1001.81
2023-03-16T08:13:54.680Z,1001.69
2023-03-16T08:14:54.705Z,1001.77
2023-03-16T08:15:54.677Z,1001.83
2023-03-16T08:16:54.658Z,1001.77
2023-03-16T08:17:54.720Z,1001.77
2023-03-16T08:18:54.651Z,1001.78
2023-03-16T08:19:54.628Z,1001.77
2023-03-16T08:20:54.633Z,1001.72
2023-03-16T08:22:01.386Z,1001.75
2023-03-16T08:22:56.760Z,1001.71
2023-03-16T08:23:54.587Z,1001.68
2023-03-16T08:24:54.618Z,1001.69
2023-03-16T08:25:54.635Z,1001.67
2023-03-16T08:26:54.578Z,1001.67
2023-03-16T08:27:54.574Z,1001.69
2023-03-16T08:28:54.605Z,1001.63
2023-03-16T08:29:54.556Z,1001.65
2023-03-16T08:30:54.570Z,1001.63
2023-03-16T08:31:54.576Z,1001.61
2023-03-16T08:32:54.551Z,1001.60
2023-03-16T08:33:54.555Z,1001.54
2023-03-16T08:34:54.492Z,1001.51
2023-03-16T08:35:54.553Z,1001.53
2023-03-16T08:36:54.530Z,1001.51
2023-03-16T08:37:54.517Z,1001.52
2023-03-16T08:39:06.048Z,1001.54
2023-03-16T08:39:56.507Z,1001.51
2023-03-16T08:40:54.467Z,1001.50
2023-03-16T08:41:54.489Z,1001.46
2023-03-16T08:42:54.469Z,1001.50
2023-03-16T08:43:54.438Z,1001.53
2023-03-16T08:44:54.440Z,1001.52
2023-03-16T08:45:54.430Z,1001.49
2023-03-16T08:46:54.436Z,1001.46
2023-03-16T08:47:54.402Z,1001.44
2023-03-16T08:48:54.401Z,1001.50
2023-03-16T08:49:54.397Z,1001.46
2023-03-16T08:50:54.442Z,1001.55
2023-03-16T08:51:54.390Z,1001.57
2023-03-16T08:52:54.405Z,1001.57
2023-03-16T08:53:55.115Z,1001.63
2023-03-16T08:55:03.096Z,1001.67
2023-03-16T08:55:56.358Z,1001.59
2023-03-16T08:56:54.365Z,1001.71
2023-03-16T08:57:55.049Z,1001.65
2023-03-16T08:58:54.322Z,1001.58
2023-03-16T08:59:54.386Z,1001.58
2023-03-16T09:00:55.154Z,1001.61
2023-03-16T09:01:54.379Z,1001.53
2023-03-16T09:02:54.317Z,1001.56
2023-03-16T09:03:54.327Z,1001.53
2023-03-16T09:04:54.281Z,1001.49
2023-03-16T09:05:56.049Z,1001.54
2023-03-16T09:07:09.886Z,1001.60
2023-03-16T09:07:56.316Z,1001.61
2023-03-16T09:08:54.260Z,1001.62
2023-03-16T09:09:54.303Z,1001.59
2023-03-16T09:10:54.267Z,1001.70
2023-03-16T09:11:54.248Z,1001.74
2023-03-16T09:12:54.362Z,1001.71
2023-03-16T09:13:54.299Z,1001.63
2023-03-16T09:14:54.209Z,1001.61
2023-03-16T09:15:54.292Z,1001.60
2023-03-16T09:16:54.300Z,1001.58
2023-03-16T09:17:55.066Z,1001.57
2023-03-16T09:18:54.247Z,1001.64
2023-03-16T09:19:57.748Z,1001.60
2023-03-16T09:20:56.966Z,1001.58
2023-03-16T09:21:54.174Z,1001.56
2023-03-16T09:22:54.155Z,1001.45
2023-03-16T09:23:55.198Z,1001.49
2023-03-16T09:24:54.161Z,1001.58
2023-03-16T09:25:54.281Z,1001.61
2023-03-16T09:26:54.207Z,1001.51
2023-03-16T09:27:54.217Z,1001.57
2023-03-16T09:28:54.140Z,1001.48
2023-03-16T09:29:54.134Z,1001.55
2023-03-16T09:30:54.131Z,1001.60
2023-03-16T09:31:54.160Z,1001.72
2023-03-16T09:32:54.075Z,1001.71
2023-03-16T09:33:54.086Z,1001.73
2023-03-16T09:34:54.094Z,1001.74
2023-03-16T09:35:54.086Z,1001.78
2023-03-16T09:36:55.076Z,1001.75
2023-03-16T09:38:07.347Z,1001.74
2023-03-16T09:38:56.145Z,1001.76
2023-03-16T09:39:57.952Z,1001.79
2023-03-16T09:40:56.041Z,1001.74
2023-03-16T09:41:54.055Z,1001.69
2023-03-16T09:42:54.022Z,1001.65
2023-03-16T09:43:54.030Z,1001.71
2023-03-16T09:44:54.020Z,1001.71
2023-03-16T09:45:54.089Z,1001.79
2023-03-16T09:46:53.995Z,1001.76
2023-03-16T09:47:53.953Z,1001.84
2023-03-16T09:48:55.028Z,1001.75
2023-03-16T09:49:54.016Z,1001.74
2023-03-16T09:50:54.326Z,1001.77
2023-03-16T09:51:53.986Z,1001.88
2023-03-16T09:52:53.949Z,1001.75
2023-03-16T09:53:53.946Z,1001.76
2023-03-16T09:54:53.966Z,1001.79
2023-03-16T09:55:53.978Z,1001.85
2023-03-16T09:56:53.918Z,1001.78
2023-03-16T09:57:53.929Z,1001.83
2023-03-16T09:58:54.674Z,1001.77
2023-03-16T09:59:53.904Z,1001.82
2023-03-16T10:00:53.963Z,1001.90
2023-03-16T10:01:53.897Z,1001.83
2023-03-16T10:02:53.867Z,1001.89
2023-03-16T10:03:53.945Z,1001.79
2023-03-16T10:04:53.851Z,1001.75
2023-03-16T10:05:53.866Z,1001.85
2023-03-16T10:06:53.879Z,1001.91
2023-03-16T10:07:53.832Z,1001.88
2023-03-16T10:08:53.881Z,1001.85
2023-03-16T10:09:54.574Z,1001.74
2023-03-16T10:10:53.904Z,1001.82
2023-03-16T10:11:53.881Z,1001.98
2023-03-16T10:12:53.827Z,1001.84
2023-03-16T10:13:53.776Z,1001.91
2023-03-16T10:14:53.821Z,1001.84
2023-03-16T10:15:53.778Z,1001.90
2023-03-16T10:16:53.931Z,1001.90
2023-03-16T10:17:53.783Z,1001.96
2023-03-16T10:18:53.751Z,1002.05
2023-03-16T10:19:53.752Z,1001.92
2023-03-16T10:20:53.762Z,1001.92
2023-03-16T10:21:53.785Z,1001.91
2023-03-16T10:22:53.736Z,1001.98
2023-03-16T10:23:53.715Z,1001.93
2023-03-16T10:24:53.711Z,1001.90
2023-03-16T10:25:53.688Z,1001.92
2023-03-16T10:26:53.736Z,1001.89
2023-03-16T10:27:53.756Z,1001.82
2023-03-16T10:28:53.675Z,1001.87
2023-03-16T10:29:53.663Z,1001.81
2023-03-16T10:30:53.673Z,1001.84
2023-03-16T10:31:53.722Z,1001.78
2023-03-16T10:32:53.745Z,1001.80
2023-03-16T10:33:53.692Z,1001.77
2023-03-16T10:34:53.668Z,1001.81
2023-03-16T10:35:53.650Z,1001.85
2023-03-16T10:36:53.614Z,1001.80
2023-03-16T10:37:53.642Z,1001.81
2023-03-16T10:38:54.664Z,1001.80
2023-03-16T10:39:53.610Z,1001.73
2023-03-16T10:40:53.606Z,1001.62
2023-03-16T10:41:53.667Z,1001.72
2023-03-16T10:42:53.612Z,1001.65
2023-03-16T10:43:53.611Z,1001.58
2023-03-16T10:44:53.585Z,1001.55
2023-03-16T10:45:53.629Z,1001.54
2023-03-16T10:46:53.682Z,1001.52
2023-03-16T10:47:53.553Z,1001.52
2023-03-16T10:48:53.584Z,1001.54
2023-03-16T10:49:53.522Z,1001.47
2023-03-16T10:50:53.535Z,1001.48
2023-03-16T10:51:53.501Z,1001.45
2023-03-16T10:52:53.553Z,1001.51
2023-03-16T10:53:53.538Z,1001.47
2023-03-16T10:54:53.526Z,1001.45
2023-03-16T10:55:53.499Z,1001.51
2023-03-16T10:56:53.485Z,1001.53
2023-03-16T10:57:53.494Z,1001.49
2023-03-16T10:58:53.470Z,1001.50
2023-03-16T10:59:54.198Z,1001.47
2023-03-16T11:00:53.614Z,1001.38
2023-03-16T11:01:53.446Z,1001.50
2023-03-16T11:02:53.451Z,1001.42
2023-03-16T11:03:53.427Z,1001.47
2023-03-16T11:04:53.478Z,1001.48
2023-03-16T11:05:53.500Z,1001.41
2023-03-16T11:06:53.408Z,1001.41
2023-03-16T11:07:53.401Z,1001.41
2023-03-16T11:08:53.913Z,1001.41
2023-03-16T11:09:53.396Z,1001.46
2023-03-16T11:10:56.118Z,1001.44
2023-03-16T11:11:54.354Z,1001.55
2023-03-16T11:12:53.345Z,1001.54
2023-03-16T11:13:53.349Z,1001.48
2023-03-16T11:14:53.350Z,1001.43
2023-03-16T11:15:53.401Z,1001.48
2023-03-16T11:16:53.421Z,1001.62
2023-03-16T11:17:53.334Z,1001.53
2023-03-16T11:18:53.293Z,1001.58
2023-03-16T11:19:53.309Z,1001.48
2023-03-16T11:20:53.301Z,1001.59
2023-03-16T11:21:53.297Z,1001.64
2023-03-16T11:22:53.294Z,1001.64
2023-03-16T11:23:53.282Z,1001.55
2023-03-16T11:24:53.321Z,1001.65
2023-03-16T11:25:53.272Z,1001.63
2023-03-16T11:26:53.281Z,1001.61
2023-03-16T11:27:53.317Z,1001.65
2023-03-16T11:28:53.220Z,1001.64
2023-03-16T11:29:53.244Z,1001.70
2023-03-16T11:30:53.297Z,1001.72
2023-03-16T11:31:53.240Z,1001.75
2023-03-16T11:32:53.227Z,1001.69
2023-03-16T11:33:53.225Z,1001.64
2023-03-16T11:34:53.208Z,1001.59
2023-03-16T11:35:59.313Z,1001.62
2023-03-16T11:36:55.200Z,1001.63
2023-03-16T11:37:53.197Z,1001.57
2023-03-16T11:38:54.531Z,1001.50
2023-03-16T11:39:53.235Z,1001.55
2023-03-16T11:40:53.124Z,1001.51
2023-03-16T11:41:53.127Z,1001.48
2023-03-16T11:42:53.139Z,1001.52
2023-03-16T11:43:53.166Z,1001.53
2023-03-16T11:44:53.102Z,1001.47
2023-03-16T11:45:53.109Z,1001.55
2023-03-16T11:46:53.140Z,1001.42
2023-03-16T11:47:53.115Z,1001.50
2023-03-16T11:48:53.111Z,1001.40
2023-03-16T11:49:53.067Z,1001.43
2023-03-16T11:50:53.051Z,1001.39
2023-03-16T11:51:53.082Z,1001.35
2023-03-16T11:52:53.053Z,1001.29
2023-03-16T11:53:53.097Z,1001.28
2023-03-16T11:54:53.053Z,1001.24
2023-03-16T11:55:53.019Z,1001.28
2023-03-16T11:56:53.012Z,1001.26
2023-03-16T11:57:53.009Z,1001.17
2023-03-16T11:58:53.002Z,1001.28
2023-03-16T12:00:01.208Z,1001.22
2023-03-16T12:00:55.007Z,1001.20
2023-03-16T12:02:00.104Z,1001.27
2023-03-16T12:02:55.084Z,1001.27
2023-03-16T12:03:53.080Z,1001.23
2023-03-16T12:04:52.993Z,1001.27
2023-03-16T12:05:52.984Z,1001.28
2023-03-16T12:06:52.969Z,1001.30
2023-03-16T12:07:52.966Z,1001.36
2023-03-16T12:09:25.617Z,1001.28
2023-03-16T12:09:52.978Z,1001.31
2023-03-16T12:10:53.028Z,1001.40
2023-03-16T12:11:52.925Z,1001.38
2023-03-16T12:12:52.890Z,1001.41
2023-03-16T12:13:52.943Z,1001.48
2023-03-16T12:14:52.885Z,1001.47
2023-03-16T12:15:52.958Z,1001.47
2023-03-16T12:16:52.930Z,1001.57
2023-03-16T12:17:52.871Z,1001.33
2023-03-16T12:18:52.842Z,1001.40
2023-03-16T12:19:52.857Z,1001.40
2023-03-16T12:20:52.867Z,1001.37